Time;durP1;ratioP1;P1;durP2;ratioP2;P2;SDS_P1;SDS_P2;PMS_P1;PMS_P2;Temp;Humidity;BMP_temperature;BMP_pressure;BME280_temperature;BME280_humidity;BME280_pressure;Samples;Min_cycle;Max_cycle;Signal;HPM_P1;HPM_P2
2021/10/17 00:00:08;;;;;;;5.18;1.75;;;9.90;99.90;;;;;;4999581;28;20129;-64
2021/10/17 00:02:39;;;;;;;6.68;2.42;;;9.90;99.90;;;;;;5002569;28;20119;-64
2021/10/17 00:05:12;;;;;;;;;;;9.90;99.90;;;;;;5004268;28;20499;-65
2021/10/17 00:07:41;;;;;;;7.75;1.48;;;9.90;99.90;;;;;;5005530;28;19949;-65
2021/10/17 00:10:10;;;;;;;6.53;1.75;;;9.90;99.90;;;;;;5001279;28;20054;-66
2021/10/17 00:12:39;;;;;;;5.03;1.13;;;9.90;99.90;;;;;;4997226;28;20073;-65
2021/10/17 00:15:09;;;;;;;5.20;1.55;;;9.80;99.90;;;;;;5013671;28;20049;-64
2021/10/17 00:17:36;;;;;;;7.22;1.95;;;9.80;99.90;;;;;;5005718;28;20101;-64
2021/10/17 00:20:05;;;;;;;15.45;1.77;;;9.80;99.90;;;;;;5005088;28;20520;-68
2021/10/17 00:22:31;;;;;;;7.32;1.45;;;9.80;99.90;;;;;;5008104;28;20101;-71
2021/10/17 00:24:58;;;;;;;4.18;2.05;;;9.90;99.90;;;;;;5012892;28;20045;-66
2021/10/17 00:27:25;;;;;;;12.65;2.83;;;9.90;99.90;;;;;;5003183;28;20113;-67
2021/10/17 00:29:52;;;;;;;6.30;2.15;;;9.90;99.90;;;;;;4989227;28;20050;-66
2021/10/17 00:32:19;;;;;;;5.95;1.95;;;9.90;99.90;;;;;;4999683;28;20053;-65
2021/10/17 00:34:46;;;;;;;12.70;1.88;;;9.90;99.90;;;;;;5003742;28;20081;-66
2021/10/17 00:37:13;;;;;;;11.38;2.13;;;9.80;99.90;;;;;;5003304;28;20054;-64
2021/10/17 00:39:40;;;;;;;4.88;1.50;;;9.80;99.90;;;;;;4977516;28;20058;-66
2021/10/17 00:42:07;;;;;;;6.35;1.77;;;9.80;99.90;;;;;;4980757;28;20058;-64
2021/10/17 00:44:34;;;;;;;5.88;1.58;;;9.80;99.90;;;;;;4984125;28;20399;-64
2021/10/17 00:47:01;;;;;;;6.82;2.20;;;9.80;99.90;;;;;;4988245;28;20053;-64
2021/10/17 00:49:28;;;;;;;7.30;2.45;;;9.80;99.90;;;;;;4988310;28;20058;-65
2021/10/17 00:51:55;;;;;;;5.57;1.48;;;9.80;99.90;;;;;;5001966;28;20117;-65
2021/10/17 00:54:22;;;;;;;5.43;1.52;;;9.70;99.90;;;;;;4997386;28;20060;-65
2021/10/17 00:56:48;;;;;;;8.32;1.70;;;9.80;99.90;;;;;;4992317;28;20246;-66
2021/10/17 00:59:15;;;;;;;7.32;1.23;;;9.80;99.90;;;;;;4999396;28;20124;-64
2021/10/17 01:01:43;;;;;;;6.28;2.70;;;9.80;99.90;;;;;;5000961;28;20076;-65
2021/10/17 01:04:10;;;;;;;5.18;1.63;;;9.80;99.90;;;;;;4982922;28;20050;-64
2021/10/17 01:06:37;;;;;;;5.50;1.85;;;9.80;99.90;;;;;;5004109;28;20054;-65
2021/10/17 01:09:05;;;;;;;5.78;1.63;;;9.80;99.90;;;;;;5004437;28;20600;-66
2021/10/17 01:11:46;;;;;;;4.57;2.17;;;9.80;99.90;;;;;;4985573;28;20069;-65
2021/10/17 01:14:21;;;;;;;6.97;1.50;;;9.70;99.90;;;;;;4986337;28;20058;-65
2021/10/17 01:16:51;;;;;;;6.30;1.38;;;9.70;99.90;;;;;;5007377;28;20138;-65
2021/10/17 01:19:19;;;;;;;5.17;1.40;;;9.70;99.90;;;;;;4995788;28;20057;-66
2021/10/17 01:21:51;;;;;;;3.67;1.00;;;9.70;99.90;;;;;;4978275;28;20295;-65
2021/10/17 01:24:19;;;;;;;8.18;1.02;;;9.70;99.90;;;;;;4982750;28;20085;-65
2021/10/17 01:26:46;;;;;;;4.38;1.17;;;9.60;99.90;;;;;;5011250;28;20113;-65
2021/10/17 01:29:14;;;;;;;5.53;2.20;;;9.60;99.90;;;;;;4995500;28;20049;-65
2021/10/17 01:31:41;;;;;;;5.07;1.05;;;9.60;99.90;;;;;;5009432;28;20459;-68
2021/10/17 01:34:09;;;;;;;3.70;0.95;;;9.60;99.90;;;;;;5005408;28;20584;-65
2021/10/17 01:36:37;;;;;;;4.85;1.10;;;9.60;99.90;;;;;;4988904;28;20703;-65
2021/10/17 01:39:06;;;;;;;7.43;1.25;;;9.70;99.90;;;;;;5005993;28;20056;-66
2021/10/17 01:41:34;;;;;;;5.93;1.60;;;9.60;99.90;;;;;;4987544;28;20046;-66
2021/10/17 01:44:06;;;;;;;4.50;2.00;;;9.60;99.90;;;;;;5004275;28;20046;-66
2021/10/17 01:46:35;;;;;;;2.47;1.33;;;9.60;99.90;;;;;;4990232;28;20062;-64
2021/10/17 01:49:07;;;;;;;5.32;1.50;;;9.60;99.90;;;;;;5001136;28;20549;-66
2021/10/17 01:51:41;;;;;;;14.18;2.20;;;9.50;99.90;;;;;;4988604;28;20088;-68
2021/10/17 01:54:08;;;;;;;5.22;2.35;;;9.50;99.90;;;;;;4986995;28;20049;-65
2021/10/17 01:56:36;;;;;;;9.15;2.38;;;9.50;99.90;;;;;;4998027;28;20127;-65
2021/10/17 01:59:06;;;;;;;9.50;2.40;;;9.50;99.90;;;;;;4990047;28;20491;-68
2021/10/17 02:01:45;;;;;;;5.60;3.20;;;9.50;99.90;;;;;;4989144;28;20761;-64
2021/10/17 02:04:12;;;;;;;4.20;2.00;;;9.50;99.90;;;;;;4990867;28;20046;-64
2021/10/17 02:06:40;;;;;;;3.15;2.63;;;9.50;99.90;;;;;;5007031;28;20046;-65
2021/10/17 02:09:07;;;;;;;3.00;1.13;;;9.50;99.90;;;;;;5001589;28;20073;-64
2021/10/17 02:11:34;;;;;;;5.70;1.25;;;9.50;99.90;;;;;;4990662;28;20491;-66
2021/10/17 02:14:04;;;;;;;5.03;1.73;;;9.50;99.90;;;;;;4990270;28;20069;-67
2021/10/17 02:16:31;;;;;;;4.53;2.13;;;9.50;99.90;;;;;;4999339;28;20061;-64
2021/10/17 02:18:58;;;;;;;3.60;1.67;;;9.50;99.90;;;;;;5007170;28;20553;-66
2021/10/17 02:21:26;;;;;;;6.90;2.00;;;9.50;99.90;;;;;;5003696;28;20442;-65
2021/10/17 02:23:53;;;;;;;3.30;1.92;;;9.40;99.90;;;;;;4988882;28;20052;-64
2021/10/17 02:26:21;;;;;;;5.43;1.55;;;9.40;99.90;;;;;;5008337;28;20133;-65
2021/10/17 02:29:13;;;;;;;3.17;0.70;;;9.40;99.90;;;;;;4983439;28;20050;-64
2021/10/17 02:31:50;;;;;;;2.40;1.27;;;9.40;99.90;;;;;;5016017;28;20136;-65
2021/10/17 02:34:18;;;;;;;5.15;1.45;;;9.40;99.90;;;;;;4989943;28;20398;-64
2021/10/17 02:36:45;;;;;;;0.98;0.85;;;9.40;99.90;;;;;;5006074;28;20503;-66
2021/10/17 02:39:13;;;;;;;4.93;0.75;;;9.40;99.90;;;;;;4997915;28;20143;-65
2021/10/17 02:41:41;;;;;;;5.05;0.75;;;9.40;99.90;;;;;;5006607;28;20048;-65
2021/10/17 02:44:09;;;;;;;2.53;1.05;;;9.50;99.90;;;;;;5004061;28;20054;-64
2021/10/17 02:46:39;;;;;;;;;;;9.50;99.90;;;;;;5005661;28;20050;-66
2021/10/17 02:49:06;;;;;;;4.15;0.85;;;9.50;99.90;;;;;;4997855;28;19925;-65
2021/10/17 02:51:33;;;;;;;6.95;2.60;;;9.50;99.90;;;;;;4989018;28;20459;-65
2021/10/17 02:54:00;;;;;;;2.28;0.57;;;9.50;99.90;;;;;;4994953;28;20071;-65
2021/10/17 02:56:27;;;;;;;2.33;1.13;;;9.50;99.90;;;;;;5000258;28;20050;-66
2021/10/17 02:58:54;;;;;;;2.28;0.52;;;9.50;99.90;;;;;;4987457;28;20065;-64
2021/10/17 03:01:21;;;;;;;4.20;1.05;;;9.50;99.90;;;;;;4984985;28;20085;-65
2021/10/17 03:03:48;;;;;;;2.50;1.48;;;9.50;99.90;;;;;;5008103;28;20045;-65
2021/10/17 03:06:15;;;;;;;1.98;0.90;;;9.50;99.90;;;;;;4990556;28;20052;-64
2021/10/17 03:08:42;;;;;;;5.88;1.35;;;9.50;99.90;;;;;;4988017;28;20120;-66
2021/10/17 03:11:11;;;;;;;1.88;1.10;;;9.50;99.90;;;;;;4994194;28;20057;-64
2021/10/17 03:13:43;;;;;;;5.05;1.33;;;9.50;99.90;;;;;;4982053;28;20130;-65
2021/10/17 03:16:19;;;;;;;3.05;1.00;;;9.50;99.90;;;;;;4989216;28;20057;-65
2021/10/17 03:18:46;;;;;;;1.65;0.70;;;9.40;99.90;;;;;;5003216;28;20053;-65
2021/10/17 03:21:17;;;;;;;5.63;2.25;;;9.40;99.90;;;;;;4986377;28;20054;-65
2021/10/17 03:23:44;;;;;;;8.27;1.17;;;9.40;99.90;;;;;;4988226;28;20054;-65
2021/10/17 03:26:11;;;;;;;6.05;1.50;;;9.40;99.90;;;;;;5002824;28;20502;-64
2021/10/17 03:28:42;;;;;;;5.13;1.55;;;9.30;99.90;;;;;;5005020;28;20054;-64
2021/10/17 03:31:09;;;;;;;2.85;1.25;;;9.30;99.90;;;;;;5004132;28;20042;-66
2021/10/17 03:33:36;;;;;;;5.63;1.38;;;9.20;99.90;;;;;;4989870;28;20534;-64
2021/10/17 03:36:09;;;;;;;6.25;1.77;;;9.30;99.90;;;;;;4985163;28;20049;-64
2021/10/17 03:38:39;;;;;;;5.65;1.63;;;9.20;99.90;;;;;;5005713;28;20434;-65
2021/10/17 03:41:06;;;;;;;7.00;1.15;;;9.20;99.90;;;;;;4989703;28;20088;-66
2021/10/17 03:43:41;;;;;;;5.57;1.38;;;9.20;99.90;;;;;;4987468;28;20078;-65
2021/10/17 03:46:08;;;;;;;5.18;1.95;;;9.10;99.90;;;;;;4984536;28;20049;-65
2021/10/17 03:48:35;;;;;;;4.32;1.33;;;9.10;99.90;;;;;;4991119;28;20149;-65
2021/10/17 03:51:09;;;;;;;2.60;1.17;;;9.10;99.90;;;;;;4987731;28;20052;-68
2021/10/17 03:53:37;;;;;;;4.78;1.67;;;9.10;99.90;;;;;;4985319;28;20054;-66
2021/10/17 03:56:04;;;;;;;7.65;1.95;;;9.10;99.90;;;;;;5002430;28;20046;-64
2021/10/17 03:58:32;;;;;;;6.25;1.23;;;9.10;99.90;;;;;;4985834;28;20072;-64
2021/10/17 04:00:59;;;;;;;3.70;1.38;;;9.10;99.90;;;;;;5003590;28;20336;-65
2021/10/17 04:03:28;;;;;;;7.60;1.20;;;9.10;99.90;;;;;;4985380;28;20490;-64
2021/10/17 04:05:55;;;;;;;3.63;2.33;;;9.10;99.90;;;;;;4987197;28;20053;-65
2021/10/17 04:08:23;;;;;;;11.38;2.03;;;9.20;99.90;;;;;;4985154;28;20129;-66
2021/10/17 04:10:50;;;;;;;5.45;1.20;;;9.20;99.90;;;;;;4983143;28;20660;-65
2021/10/17 04:13:18;;;;;;;7.25;1.52;;;9.20;99.90;;;;;;5002609;28;20064;-66
2021/10/17 04:15:45;;;;;;;6.50;3.15;;;9.20;99.90;;;;;;5004943;28;20050;-65
2021/10/17 04:18:12;;;;;;;4.25;1.77;;;9.20;99.90;;;;;;4981659;28;20209;-66
2021/10/17 04:20:40;;;;;;;4.38;2.33;;;9.10;99.90;;;;;;4999703;28;20113;-64
2021/10/17 04:23:07;;;;;;;4.57;1.08;;;9.10;99.90;;;;;;4985121;28;20511;-65
2021/10/17 04:25:35;;;;;;;3.97;1.50;;;9.10;99.90;;;;;;4983248;28;20054;-64
2021/10/17 04:28:04;;;;;;;3.40;0.85;;;9.10;99.90;;;;;;4999391;28;20046;-66
2021/10/17 04:30:31;;;;;;;5.28;1.80;;;9.10;99.90;;;;;;5001037;28;20050;-65
2021/10/17 04:32:58;;;;;;;9.27;2.78;;;9.10;99.90;;;;;;4977202;28;20050;-64
2021/10/17 04:35:25;;;;;;;3.55;1.13;;;9.20;99.90;;;;;;4994780;28;20120;-65
2021/10/17 04:37:52;;;;;;;5.45;1.48;;;9.20;99.90;;;;;;4998877;28;20847;-65
2021/10/17 04:40:21;;;;;;;1.83;0.68;;;9.20;99.90;;;;;;4984733;28;20530;-67
2021/10/17 04:42:49;;;;;;;1.48;0.68;;;9.20;99.90;;;;;;5004074;28;20446;-65
2021/10/17 04:45:16;;;;;;;1.73;0.57;;;9.20;99.90;;;;;;5001236;28;20073;-64
2021/10/17 04:47:44;;;;;;;3.15;0.75;;;9.30;99.90;;;;;;4982557;28;20104;-65
2021/10/17 04:50:11;;;;;;;1.10;0.55;;;9.30;99.90;;;;;;5001838;28;20123;-64
2021/10/17 04:52:38;;;;;;;2.95;0.50;;;9.30;99.90;;;;;;4995579;28;20089;-65
2021/10/17 04:55:08;;;;;;;1.92;1.13;;;9.30;99.90;;;;;;5001664;28;20141;-64
2021/10/17 04:57:37;;;;;;;2.42;0.93;;;9.30;99.90;;;;;;4995901;28;20096;-64
2021/10/17 05:00:05;;;;;;;2.92;1.13;;;9.30;99.90;;;;;;5005677;28;20074;-64
2021/10/17 05:02:48;;;;;;;4.57;1.27;;;9.30;99.90;;;;;;4998815;28;20127;-65
2021/10/17 05:05:15;;;;;;;6.10;1.77;;;9.30;99.90;;;;;;4989964;28;20046;-64
2021/10/17 05:07:44;;;;;;;3.80;1.35;;;9.30;99.90;;;;;;4986688;28;20046;-65
2021/10/17 05:10:11;;;;;;;2.83;1.23;;;9.30;99.90;;;;;;4984380;28;20144;-65
2021/10/17 05:12:38;;;;;;;5.22;0.63;;;9.30;99.90;;;;;;4984909;28;20521;-65
2021/10/17 05:15:06;;;;;;;5.78;1.23;;;9.30;99.90;;;;;;4994099;28;20056;-65
2021/10/17 05:17:33;;;;;;;4.55;1.00;;;9.30;99.90;;;;;;5003229;28;20058;-65
2021/10/17 05:20:00;;;;;;;2.63;1.50;;;9.30;99.90;;;;;;4997996;28;20064;-64
2021/10/17 05:22:30;;;;;;;2.45;0.85;;;9.30;99.90;;;;;;5001136;28;20078;-66
2021/10/17 05:24:57;;;;;;;4.65;1.50;;;9.30;99.90;;;;;;4999786;28;20066;-65
2021/10/17 05:27:23;;;;;;;3.65;1.55;;;9.30;99.90;;;;;;5000942;28;20058;-65
2021/10/17 05:29:50;;;;;;;4.10;0.93;;;9.30;99.90;;;;;;5001825;28;20089;-65
2021/10/17 05:32:20;;;;;;;2.75;1.02;;;9.30;99.90;;;;;;4986741;28;20049;-66
2021/10/17 05:34:47;;;;;;;9.45;1.30;;;9.30;99.90;;;;;;5002253;28;20046;-64
2021/10/17 05:37:14;;;;;;;3.85;1.10;;;9.30;99.90;;;;;;5014305;28;20045;-65
2021/10/17 05:39:41;;;;;;;6.18;1.27;;;9.30;99.90;;;;;;5004588;28;20415;-66
2021/10/17 05:42:08;;;;;;;3.53;1.15;;;9.30;99.90;;;;;;4989098;28;20042;-68
2021/10/17 05:44:35;;;;;;;7.05;1.00;;;9.40;99.90;;;;;;4980218;28;20042;-64
2021/10/17 05:47:02;;;;;;;8.07;2.47;;;9.40;99.90;;;;;;5004158;28;20073;-64
2021/10/17 05:49:29;;;;;;;4.82;1.33;;;9.40;99.90;;;;;;4997432;28;20059;-65
2021/10/17 05:51:56;;;;;;;12.85;2.40;;;9.40;99.90;;;;;;4989668;28;20050;-64
2021/10/17 05:54:23;;;;;;;3.15;1.38;;;9.40;99.90;;;;;;4991132;28;20137;-64
2021/10/17 05:56:50;;;;;;;4.32;1.40;;;9.40;99.90;;;;;;4992296;28;20058;-65
2021/10/17 05:59:18;;;;;;;7.22;1.30;;;9.40;99.90;;;;;;4985688;28;20483;-64
2021/10/17 06:01:46;;;;;;;4.90;1.90;;;9.40;99.90;;;;;;4984902;28;20050;-68
2021/10/17 06:04:20;;;;;;;3.88;1.02;;;9.50;99.90;;;;;;5002623;28;20053;-66
2021/10/17 06:07:01;;;;;;;;;;;9.50;99.90;;;;;;4983031;28;20230;-64
2021/10/17 06:09:38;;;;;;;11.48;2.25;;;9.50;99.90;;;;;;4984138;28;20020;-64
2021/10/17 06:12:06;;;;;;;2.67;1.27;;;9.50;99.90;;;;;;4983856;28;20359;-64
2021/10/17 06:14:35;;;;;;;;;;;9.50;99.90;;;;;;4989352;28;20478;-65
2021/10/17 06:17:03;;;;;;;9.93;2.08;;;9.60;99.90;;;;;;5005064;28;20015;-65
2021/10/17 06:19:31;;;;;;;5.53;1.40;;;9.60;99.90;;;;;;4997349;28;20100;-65
2021/10/17 06:22:03;;;;;;;6.07;1.27;;;9.60;99.90;;;;;;4984402;28;20049;-66
2021/10/17 06:24:35;;;;;;;1.90;1.23;;;9.60;99.90;;;;;;4983360;28;20065;-64
2021/10/17 06:27:02;;;;;;;3.53;1.60;;;9.60;99.90;;;;;;4995092;28;20510;-67
2021/10/17 06:29:30;;;;;;;4.75;1.58;;;9.60;99.90;;;;;;4980898;28;20057;-63
2021/10/17 06:32:00;;;;;;;6.30;2.85;;;9.60;99.90;;;;;;4997942;28;20443;-70
2021/10/17 06:34:28;;;;;;;4.13;1.02;;;9.70;99.90;;;;;;4981683;28;20114;-68
2021/10/17 06:36:56;;;;;;;5.88;1.92;;;9.70;99.90;;;;;;5006854;28;20046;-64
2021/10/17 06:39:24;;;;;;;2.08;0.80;;;9.70;99.90;;;;;;4999743;28;20062;-68
2021/10/17 06:41:51;;;;;;;5.18;1.38;;;9.70;99.90;;;;;;4994594;28;20490;-65
2021/10/17 06:44:29;;;;;;;4.07;1.48;;;9.60;99.90;;;;;;4997416;28;20076;-63
2021/10/17 06:46:57;;;;;;;5.35;1.48;;;9.70;99.90;;;;;;4988253;28;20046;-65
2021/10/17 06:49:25;;;;;;;3.38;1.15;;;9.70;99.90;;;;;;5010959;28;20049;-64
2021/10/17 06:51:52;;;;;;;6.80;1.42;;;9.70;99.90;;;;;;4987887;28;20577;-63
2021/10/17 06:54:18;;;;;;;2.85;1.52;;;9.70;99.90;;;;;;4988253;28;20165;-65
2021/10/17 06:56:47;;;;;;;3.97;1.58;;;9.70;99.90;;;;;;5000292;28;20070;-64
2021/10/17 06:59:14;;;;;;;7.50;1.88;;;9.70;99.90;;;;;;5002322;28;20050;-63
2021/10/17 07:01:41;;;;;;;1.75;0.85;;;9.70;99.90;;;;;;4988874;28;20041;-64
2021/10/17 07:04:08;;;;;;;6.63;1.17;;;9.80;99.90;;;;;;5004583;28;20081;-65
2021/10/17 07:06:38;;;;;;;3.37;0.80;;;9.80;99.90;;;;;;5003026;28;20065;-64
2021/10/17 07:09:09;;;;;;;4.85;1.92;;;9.80;99.90;;;;;;4993889;28;20050;-67
2021/10/17 07:11:40;;;;;;;3.53;0.80;;;9.70;99.90;;;;;;4977469;28;20341;-65
2021/10/17 07:14:15;;;;;;;6.53;0.95;;;9.70;99.90;;;;;;4997384;28;20049;-63
2021/10/17 07:16:54;;;;;;;6.68;1.10;;;9.50;99.90;;;;;;4986440;28;20045;-68
2021/10/17 07:19:21;;;;;;;3.17;1.58;;;9.50;99.90;;;;;;4983520;28;20132;-64
2021/10/17 07:21:48;;;;;;;3.08;1.58;;;9.50;99.90;;;;;;5001297;28;20058;-69
2021/10/17 07:24:15;;;;;;;5.05;1.45;;;9.40;99.90;;;;;;4987155;28;20042;-64
2021/10/17 07:26:47;;;;;;;3.85;1.20;;;9.40;99.90;;;;;;5001381;28;20046;-64
2021/10/17 07:29:14;;;;;;;2.88;1.10;;;9.40;99.90;;;;;;5004170;28;20133;-64
2021/10/17 07:31:41;;;;;;;4.05;1.27;;;9.40;99.90;;;;;;5001693;28;20450;-64
2021/10/17 07:34:10;;;;;;;4.63;1.95;;;9.30;99.90;;;;;;4985142;28;20127;-65
2021/10/17 07:36:38;;;;;;;2.33;0.75;;;9.30;99.90;;;;;;4981607;28;20157;-66
2021/10/17 07:39:14;;;;;;;2.83;1.27;;;9.30;99.90;;;;;;4999826;28;20072;-65
2021/10/17 07:41:48;;;;;;;2.13;0.70;;;9.20;99.90;;;;;;5001237;28;20104;-66
2021/10/17 07:44:16;;;;;;;3.03;1.25;;;9.10;99.90;;;;;;4997340;28;20510;-64
2021/10/17 07:47:00;;;;;;;3.42;1.38;;;9.10;99.90;;;;;;4998678;28;20057;-65
2021/10/17 07:49:30;;;;;;;1.08;0.93;;;9.10;99.90;;;;;;4984867;28;20045;-64
2021/10/17 07:51:57;;;;;;;5.00;2.30;;;9.10;99.90;;;;;;4997618;28;20052;-64
2021/10/17 07:54:26;;;;;;;4.00;0.73;;;9.00;99.90;;;;;;4994461;28;20148;-65
2021/10/17 07:56:54;;;;;;;2.05;0.65;;;9.00;99.90;;;;;;4977125;28;20085;-64
2021/10/17 07:59:29;;;;;;;1.73;0.68;;;9.00;99.90;;;;;;5004659;28;20614;-64
2021/10/17 08:01:56;;;;;;;0.77;0.77;;;9.10;99.90;;;;;;4997239;28;20049;-64
2021/10/17 08:04:31;;;;;;;1.15;0.43;;;9.20;99.90;;;;;;4982207;28;20050;-64
2021/10/17 08:07:11;;;;;;;3.20;0.57;;;9.30;99.90;;;;;;5003176;28;20045;-64
2021/10/17 08:09:39;;;;;;;4.78;0.57;;;9.20;99.90;;;;;;5001228;28;20050;-66
2021/10/17 08:12:07;;;;;;;1.45;0.93;;;9.20;99.90;;;;;;5007215;28;20403;-69
2021/10/17 08:14:36;;;;;;;1.23;0.63;;;9.30;99.90;;;;;;4999942;28;20053;-64
2021/10/17 08:17:04;;;;;;;0.93;0.45;;;9.40;99.90;;;;;;4987706;28;20664;-65
2021/10/17 08:19:53;;;;;;;3.85;0.77;;;9.40;99.90;;;;;;4996102;28;20069;-66
2021/10/17 08:22:21;;;;;;;2.92;0.60;;;9.40;99.90;;;;;;4982851;28;20049;-64
2021/10/17 08:24:48;;;;;;;2.20;1.55;;;9.40;99.90;;;;;;4985405;28;20056;-68
2021/10/17 08:27:16;;;;;;;1.85;0.63;;;9.50;99.90;;;;;;4999345;28;20066;-66
2021/10/17 08:29:43;;;;;;;1.83;0.80;;;9.50;99.90;;;;;;4980217;28;20192;-67
2021/10/17 08:32:10;;;;;;;4.40;0.70;;;9.60;99.90;;;;;;5000290;28;20073;-66
2021/10/17 08:34:42;;;;;;;3.25;0.88;;;9.60;99.90;;;;;;4997617;28;20188;-65
2021/10/17 08:37:12;;;;;;;6.78;1.05;;;9.70;99.90;;;;;;4985033;28;20104;-65
2021/10/17 08:39:58;;;;;;;2.30;1.45;;;9.70;99.90;;;;;;5002209;28;20111;-65
2021/10/17 08:42:45;;;;;;;3.13;1.27;;;9.80;99.90;;;;;;4999897;28;20132;-65
2021/10/17 08:45:23;;;;;;;2.83;1.13;;;9.90;99.90;;;;;;5004173;28;20049;-65
2021/10/17 08:47:50;;;;;;;4.75;1.05;;;10.00;99.90;;;;;;4989748;28;20041;-65
2021/10/17 08:50:18;;;;;;;1.65;0.85;;;10.00;99.90;;;;;;5000393;28;20062;-64
2021/10/17 08:52:46;;;;;;;8.38;1.10;;;10.00;99.90;;;;;;5002421;28;20100;-70
2021/10/17 08:55:15;;;;;;;4.80;0.90;;;10.00;99.90;;;;;;5000978;28;20099;-64
2021/10/17 08:57:46;;;;;;;3.97;1.48;;;10.10;99.90;;;;;;5001715;28;20050;-66
2021/10/17 09:00:32;;;;;;;0.95;0.63;;;10.00;99.90;;;;;;4986919;28;20395;-65
2021/10/17 09:03:13;;;;;;;2.63;0.70;;;10.10;99.90;;;;;;5001916;28;20053;-66
2021/10/17 09:05:44;;;;;;;5.20;1.48;;;10.20;99.90;;;;;;4984176;28;20986;-65
2021/10/17 09:08:25;;;;;;;1.58;0.75;;;10.20;99.90;;;;;;5003081;28;20384;-65
2021/10/17 09:10:56;;;;;;;1.23;1.05;;;10.20;99.90;;;;;;5007081;28;20050;-66
2021/10/17 09:13:23;;;;;;;3.20;1.75;;;10.10;99.90;;;;;;5005803;28;20053;-67
2021/10/17 09:15:55;;;;;;;2.63;0.73;;;10.00;99.90;;;;;;5005428;28;20053;-64
2021/10/17 09:18:24;;;;;;;4.05;1.35;;;9.90;99.90;;;;;;5001452;28;20083;-64
2021/10/17 09:21:02;;;;;;;1.80;1.00;;;9.90;99.90;;;;;;5004932;28;20057;-64
2021/10/17 09:23:29;;;;;;;2.78;1.33;;;10.00;99.90;;;;;;5008305;28;20046;-66
2021/10/17 09:25:59;;;;;;;7.07;1.27;;;9.90;99.90;;;;;;5006741;28;20074;-67
2021/10/17 09:28:28;;;;;;;5.05;1.38;;;10.00;99.90;;;;;;5001413;28;20174;-64
2021/10/17 09:30:59;;;;;;;4.63;0.98;;;10.00;99.90;;;;;;5007114;28;20081;-65
2021/10/17 09:33:48;;;;;;;1.30;0.75;;;10.00;99.90;;;;;;5012359;28;20164;-65
2021/10/17 09:36:17;;;;;;;2.97;1.08;;;10.10;99.90;;;;;;4989666;28;20541;-67
2021/10/17 09:39:32;;;;;;;2.80;1.10;;;10.10;99.90;;;;;;5006322;28;20045;-64
2021/10/17 09:42:41;;;;;;;2.38;0.95;;;10.10;99.90;;;;;;5002684;28;20050;-65
2021/10/17 09:45:24;;;;;;;3.17;0.73;;;10.00;99.90;;;;;;4990144;28;20073;-70
2021/10/17 09:47:51;;;;;;;2.17;1.15;;;10.00;99.90;;;;;;5004305;28;20042;-67
2021/10/17 09:50:20;;;;;;;4.90;2.55;;;10.00;99.90;;;;;;5003785;28;20074;-68
2021/10/17 09:52:53;;;;;;;3.42;0.68;;;9.90;99.90;;;;;;5006770;28;20096;-65
2021/10/17 09:55:20;;;;;;;1.65;0.65;;;9.80;99.90;;;;;;5003863;28;21696;-67
2021/10/17 09:57:47;;;;;;;4.90;0.90;;;9.90;99.90;;;;;;5003337;28;20081;-65
2021/10/17 10:00:15;;;;;;;4.05;0.95;;;10.00;99.90;;;;;;5006878;28;20450;-65
2021/10/17 10:02:49;;;;;;;7.45;1.23;;;9.90;99.90;;;;;;4997464;28;20137;-65
2021/10/17 10:05:22;;;;;;;3.83;1.67;;;9.90;99.90;;;;;;5007192;28;20161;-65
2021/10/17 10:07:51;;;;;;;4.85;1.55;;;9.90;99.90;;;;;;5008994;28;20660;-69
2021/10/17 10:10:19;;;;;;;5.60;1.65;;;10.00;99.90;;;;;;5006823;28;20104;-65
2021/10/17 10:12:47;;;;;;;1.63;1.08;;;10.00;99.90;;;;;;5002786;28;20128;-64
2021/10/17 10:15:14;;;;;;;2.42;1.00;;;10.10;99.90;;;;;;5003837;28;20049;-67
2021/10/17 10:17:42;;;;;;;1.25;0.93;;;10.00;99.90;;;;;;5006773;28;20740;-66
2021/10/17 10:20:10;;;;;;;7.78;1.13;;;10.10;99.90;;;;;;5000986;28;20089;-66
2021/10/17 10:22:43;;;;;;;7.13;1.20;;;10.10;99.90;;;;;;5004361;28;20096;-66
2021/10/17 10:25:13;;;;;;;5.15;0.98;;;10.20;99.90;;;;;;5008261;28;20100;-66
2021/10/17 10:27:41;;;;;;;4.90;0.90;;;10.20;99.90;;;;;;5008622;28;20069;-64
2021/10/17 10:30:32;;;;;;;2.40;1.63;;;10.20;99.90;;;;;;5002537;28;20073;-66
2021/10/17 10:33:18;;;;;;;2.55;0.90;;;10.20;99.90;;;;;;4986118;28;20503;-67
2021/10/17 10:36:26;;;;;;;4.53;1.15;;;10.20;99.90;;;;;;5002569;28;20116;-64
2021/10/17 10:38:53;;;;;;;10.30;1.85;;;10.20;99.90;;;;;;4989055;28;20070;-66
2021/10/17 10:41:27;;;;;;;3.20;1.50;;;10.20;99.90;;;;;;5004063;28;20116;-66
2021/10/17 10:44:14;;;;;;;2.67;1.10;;;10.10;99.90;;;;;;5002847;28;20127;-65
2021/10/17 10:46:48;;;;;;;2.67;0.90;;;10.20;99.90;;;;;;5002008;28;20064;-66
2021/10/17 10:49:37;;;;;;;3.80;1.40;;;10.30;99.90;;;;;;5005803;28;20069;-65
2021/10/17 10:52:06;;;;;;;2.03;1.30;;;10.30;99.90;;;;;;5006324;28;20046;-67
2021/10/17 10:54:33;;;;;;;2.55;1.30;;;10.30;99.90;;;;;;5002390;28;20062;-65
2021/10/17 10:57:02;;;;;;;1.60;1.00;;;10.30;99.90;;;;;;5005168;28;20054;-65
2021/10/17 10:59:58;;;;;;;1.58;0.85;;;10.30;99.90;;;;;;5002004;28;20077;-65
2021/10/17 11:02:25;;;;;;;2.05;1.15;;;10.40;99.90;;;;;;5005094;28;20042;-65
2021/10/17 11:04:52;;;;;;;3.03;0.93;;;10.40;99.90;;;;;;4999717;28;20124;-64
2021/10/17 11:07:29;;;;;;;2.13;0.60;;;10.40;99.90;;;;;;5002023;28;20513;-66
2021/10/17 11:10:17;;;;;;;3.42;1.45;;;10.20;99.90;;;;;;4993550;28;20543;-64
2021/10/17 11:12:45;;;;;;;1.83;1.10;;;10.10;99.90;;;;;;5003442;28;20076;-65
2021/10/17 11:15:18;;;;;;;4.95;1.42;;;10.20;99.90;;;;;;4995681;28;20077;-65
2021/10/17 11:17:51;;;;;;;5.15;0.90;;;10.20;99.90;;;;;;5002733;28;20503;-66
2021/10/17 11:20:20;;;;;;;3.83;1.05;;;10.10;99.90;;;;;;5000130;28;20145;-66
2021/10/17 11:22:48;;;;;;;2.25;0.70;;;10.00;99.90;;;;;;5003981;28;20073;-67
2021/10/17 11:25:16;;;;;;;2.83;0.70;;;10.00;99.90;;;;;;5001638;28;20054;-65
2021/10/17 11:27:44;;;;;;;7.68;1.20;;;9.90;99.90;;;;;;5003515;28;20073;-69
2021/10/17 11:30:32;;;;;;;2.92;1.50;;;9.90;99.90;;;;;;5001564;28;20145;-66
2021/10/17 11:33:02;;;;;;;4.65;1.30;;;10.00;99.90;;;;;;5005569;28;20050;-70
2021/10/17 11:35:34;;;;;;;1.83;0.90;;;10.10;99.90;;;;;;5003136;28;20081;-65
2021/10/17 11:38:03;;;;;;;2.70;1.23;;;10.20;99.90;;;;;;5001762;28;20073;-66
2021/10/17 11:40:33;;;;;;;1.77;0.75;;;10.20;99.90;;;;;;5001739;28;20706;-65
2021/10/17 11:43:07;;;;;;;1.95;0.98;;;10.20;99.90;;;;;;5000440;28;20041;-66
2021/10/17 11:45:36;;;;;;;1.98;0.98;;;10.20;99.90;;;;;;5001753;28;20070;-64
2021/10/17 11:48:09;;;;;;;4.25;1.42;;;10.00;99.90;;;;;;5002517;28;20107;-66
2021/10/17 11:50:42;;;;;;;5.03;0.90;;;10.00;99.90;;;;;;5003043;28;20152;-64
2021/10/17 11:53:12;;;;;;;1.83;1.00;;;9.90;99.90;;;;;;5000646;28;20053;-67
2021/10/17 11:55:44;;;;;;;2.72;1.65;;;9.80;99.90;;;;;;5002210;28;20128;-66
2021/10/17 11:58:14;;;;;;;4.30;1.20;;;9.90;99.90;;;;;;4998815;28;20058;-65
2021/10/17 12:00:45;;;;;;;5.05;1.58;;;9.90;99.90;;;;;;5001882;28;20077;-65
2021/10/17 12:03:15;;;;;;;5.00;1.52;;;9.80;99.90;;;;;;5004641;28;20104;-64
2021/10/17 12:05:45;;;;;;;3.07;1.50;;;9.90;99.90;;;;;;5003268;28;20081;-67
2021/10/17 12:08:27;;;;;;;4.35;1.45;;;10.00;99.90;;;;;;5000546;28;20046;-65
2021/10/17 12:10:57;;;;;;;7.00;2.15;;;10.10;99.90;;;;;;4997220;28;20046;-65
2021/10/17 12:13:25;;;;;;;3.33;1.25;;;10.10;99.90;;;;;;4998447;28;20081;-64
2021/10/17 12:16:10;;;;;;;2.85;0.88;;;10.00;99.90;;;;;;4996889;28;20042;-64
2021/10/17 12:18:49;;;;;;;1.92;1.05;;;10.00;99.90;;;;;;4997231;28;20182;-65
2021/10/17 12:21:19;;;;;;;1.75;0.70;;;9.90;99.90;;;;;;5000025;28;20042;-64
2021/10/17 12:23:47;;;;;;;5.40;1.80;;;9.90;99.90;;;;;;5003994;28;20049;-64
2021/10/17 12:26:28;;;;;;;1.88;1.58;;;9.90;99.90;;;;;;4985384;28;20046;-65
2021/10/17 12:29:14;;;;;;;3.47;0.90;;;10.00;99.90;;;;;;5003011;28;20046;-67
2021/10/17 12:31:56;;;;;;;7.20;1.52;;;9.90;99.90;;;;;;5000001;28;20470;-64
2021/10/17 12:34:41;;;;;;;2.75;1.30;;;9.90;99.90;;;;;;5000633;28;20049;-65
2021/10/17 12:37:09;;;;;;;0.80;0.63;;;9.90;99.90;;;;;;4999355;28;20714;-68
2021/10/17 12:39:38;;;;;;;1.55;0.93;;;9.90;99.90;;;;;;4999559;28;20467;-65
2021/10/17 12:42:05;;;;;;;4.00;1.38;;;10.00;99.90;;;;;;5002116;28;20064;-65
2021/10/17 12:44:56;;;;;;;2.03;0.77;;;10.00;99.90;;;;;;4997842;28;20054;-64
2021/10/17 12:47:23;;;;;;;2.72;1.00;;;10.10;99.90;;;;;;5002686;28;20049;-65
2021/10/17 12:49:50;;;;;;;2.78;1.05;;;10.10;99.90;;;;;;5001271;28;20137;-64
2021/10/17 12:52:32;;;;;;;3.17;1.10;;;10.00;99.90;;;;;;4998587;28;20448;-66
2021/10/17 12:55:01;;;;;;;4.05;0.73;;;9.90;99.90;;;;;;5001603;28;20095;-69
2021/10/17 12:57:28;;;;;;;2.08;0.95;;;9.90;99.90;;;;;;5000396;28;20073;-64
2021/10/17 12:59:59;;;;;;;2.60;0.70;;;9.80;99.90;;;;;;5006063;28;20112;-65
2021/10/17 13:02:37;;;;;;;3.72;1.15;;;9.90;99.90;;;;;;4999090;28;20053;-64
2021/10/17 13:05:13;;;;;;;3.45;0.82;;;9.90;99.90;;;;;;5001954;28;20466;-64
2021/10/17 13:07:39;;;;;;;5.15;1.15;;;9.90;99.90;;;;;;5002646;28;20046;-66
2021/10/17 13:10:15;;;;;;;5.70;1.08;;;9.80;99.90;;;;;;4997294;28;20443;-66
2021/10/17 13:12:49;;;;;;;3.30;1.13;;;9.80;99.90;;;;;;4998979;28;20113;-64